sensor_id;sensor_type;location;lat;lon;timestamp;pressure;altitude;pressure_sealevel;temperature;humidity
59106;BME280;44891;50.204;8.132;2024-01-15T00:02:38;97032.44;;;-1.23;94.02
59106;BME280;44891;50.204;8.132;2024-01-15T00:06:40;97031.34;;;-1.42;94.16
59106;BME280;44891;50.204;8.132;2024-01-15T00:10:42;97025.28;;;-1.21;93.88
59106;BME280;44891;50.204;8.132;2024-01-15T00:14:45;97013.53;;;-1.43;94.88
59106;BME280;44891;50.204;8.132;2024-01-15T00:18:47;97021.25;;;-1.43;95.86
59106;BME280;44891;50.204;8.132;2024-01-15T00:22:49;97010.41;;;-1.32;93.86
59106;BME280;44891;50.204;8.132;2024-01-15T00:26:50;97017.31;;;-1.32;94.31
59106;BME280;44891;50.204;8.132;2024-01-15T00:30:55;97005.78;;;-1.43;93.88
59106;BME280;44891;50.204;8.132;2024-01-15T00:34:57;97000.78;;;-1.58;94.40
59106;BME280;44891;50.204;8.132;2024-01-15T00:38:59;97008.44;;;-1.23;92.23
59106;BME280;44891;50.204;8.132;2024-01-15T00:43:00;97007.03;;;-1.26;92.66
59106;BME280;44891;50.204;8.132;2024-01-15T00:47:04;97005.81;;;-1.37;93.00
59106;BME280;44891;50.204;8.132;2024-01-15T00:51:06;97002.22;;;-1.42;93.30
59106;BME280;44891;50.204;8.132;2024-01-15T00:55:08;97002.50;;;-1.30;92.04
59106;BME280;44891;50.204;8.132;2024-01-15T00:59:10;96972.56;;;-1.31;92.07
59106;BME280;44891;50.204;8.132;2024-01-15T01:03:16;96978.34;;;-1.23;90.89
59106;BME280;44891;50.204;8.132;2024-01-15T01:07:18;96984.50;;;-1.17;91.38
59106;BME280;44891;50.204;8.132;2024-01-15T01:11:20;96984.84;;;-1.27;91.17
59106;BME280;44891;50.204;8.132;2024-01-15T01:15:22;96979.47;;;-1.45;92.34
59106;BME280;44891;50.204;8.132;2024-01-15T01:19:26;96979.78;;;-1.55;92.06
59106;BME280;44891;50.204;8.132;2024-01-15T01:23:28;96970.16;;;-1.33;92.79
59106;BME280;44891;50.204;8.132;2024-01-15T01:27:30;96963.88;;;-1.24;91.67
59106;BME280;44891;50.204;8.132;2024-01-15T01:31:31;96975.75;;;-1.23;91.70
59106;BME280;44891;50.204;8.132;2024-01-15T01:35:35;96978.28;;;-1.36;92.60
59106;BME280;44891;50.204;8.132;2024-01-15T01:39:36;96982.69;;;-1.23;91.07
59106;BME280;44891;50.204;8.132;2024-01-15T01:43:38;96974.19;;;-1.24;91.85
59106;BME280;44891;50.204;8.132;2024-01-15T01:47:40;96983.81;;;-1.39;91.59
59106;BME280;44891;50.204;8.132;2024-01-15T01:51:44;96963.03;;;-1.44;92.35
59106;BME280;44891;50.204;8.132;2024-01-15T01:55:46;96962.44;;;-1.33;91.38
59106;BME280;44891;50.204;8.132;2024-01-15T01:59:49;96970.00;;;-1.31;92.07
59106;BME280;44891;50.204;8.132;2024-01-15T02:03:52;96966.22;;;-1.29;92.08
59106;BME280;44891;50.204;8.132;2024-01-15T02:07:58;96956.34;;;-1.25;92.31
59106;BME280;44891;50.204;8.132;2024-01-15T02:12:00;96961.09;;;-1.29;91.87
59106;BME280;44891;50.204;8.132;2024-01-15T02:16:02;96956.66;;;-1.48;93.83
59106;BME280;44891;50.204;8.132;2024-01-15T02:20:04;96946.00;;;-1.39;94.71
59106;BME280;44891;50.204;8.132;2024-01-15T02:24:08;96944.81;;;-1.43;94.63
59106;BME280;44891;50.204;8.132;2024-01-15T02:28:10;96945.16;;;-1.52;94.51
59106;BME280;44891;50.204;8.132;2024-01-15T02:32:12;96941.97;;;-1.54;94.62
59106;BME280;44891;50.204;8.132;2024-01-15T02:36:16;96944.94;;;-1.57;94.37
59106;BME280;44891;50.204;8.132;2024-01-15T02:40:19;96957.91;;;-1.31;94.85
59106;BME280;44891;50.204;8.132;2024-01-15T02:44:21;96942.78;;;-1.47;94.67
59106;BME280;44891;50.204;8.132;2024-01-15T02:48:23;96948.97;;;-1.35;94.88
59106;BME280;44891;50.204;8.132;2024-01-15T02:52:25;96945.78;;;-1.44;96.29
59106;BME280;44891;50.204;8.132;2024-01-15T02:56:28;96957.50;;;-1.34;94.92
59106;BME280;44891;50.204;8.132;2024-01-15T03:00:30;96961.75;;;-1.61;94.40
59106;BME280;44891;50.204;8.132;2024-01-15T03:04:31;96957.50;;;-1.34;93.83
59106;BME280;44891;50.204;8.132;2024-01-15T03:08:33;96963.09;;;-1.18;92.74
59106;BME280;44891;50.204;8.132;2024-01-15T03:12:37;96961.09;;;-1.22;92.81
59106;BME280;44891;50.204;8.132;2024-01-15T03:16:39;96957.72;;;-1.29;93.29
59106;BME280;44891;50.204;8.132;2024-01-15T03:20:41;96956.31;;;-1.39;93.11
59106;BME280;44891;50.204;8.132;2024-01-15T03:24:43;96955.91;;;-1.35;93.78
59106;BME280;44891;50.204;8.132;2024-01-15T03:28:46;96959.56;;;-1.10;93.86
59106;BME280;44891;50.204;8.132;2024-01-15T03:32:48;96956.00;;;-0.96;93.91
59106;BME280;44891;50.204;8.132;2024-01-15T03:36:50;96959.13;;;-1.14;93.34
59106;BME280;44891;50.204;8.132;2024-01-15T03:40:54;96947.69;;;-1.04;92.85
59106;BME280;44891;50.204;8.132;2024-01-15T03:44:57;96948.03;;;-1.14;93.08
59106;BME280;44891;50.204;8.132;2024-01-15T03:48:59;96949.44;;;-1.12;92.98
59106;BME280;44891;50.204;8.132;2024-01-15T03:53:01;96940.69;;;-1.24;93.72
59106;BME280;44891;50.204;8.132;2024-01-15T03:57:02;96947.22;;;-1.28;94.40
59106;BME280;44891;50.204;8.132;2024-01-15T04:01:08;96939.91;;;-1.24;94.08
59106;BME280;44891;50.204;8.132;2024-01-15T04:05:10;96938.69;;;-1.28;94.69
59106;BME280;44891;50.204;8.132;2024-01-15T04:09:12;96931.41;;;-1.18;96.15
59106;BME280;44891;50.204;8.132;2024-01-15T04:13:14;96928.44;;;-1.08;94.03
59106;BME280;44891;50.204;8.132;2024-01-15T04:17:18;96929.41;;;-1.23;95.26
59106;BME280;44891;50.204;8.132;2024-01-15T04:21:20;96921.91;;;-1.18;94.80
59106;BME280;44891;50.204;8.132;2024-01-15T04:25:21;96925.06;;;-1.16;94.20
59106;BME280;44891;50.204;8.132;2024-01-15T04:29:23;96929.25;;;-1.01;93.98
59106;BME280;44891;50.204;8.132;2024-01-15T04:33:26;96929.63;;;-1.11;93.69
59106;BME280;44891;50.204;8.132;2024-01-15T04:37:28;96931.78;;;-1.21;94.93
59106;BME280;44891;50.204;8.132;2024-01-15T04:41:30;96931.84;;;-0.88;93.50
59106;BME280;44891;50.204;8.132;2024-01-15T04:45:32;96926.28;;;-0.98;93.21
59106;BME280;44891;50.204;8.132;2024-01-15T04:49:35;96919.13;;;-1.10;94.20
59106;BME280;44891;50.204;8.132;2024-01-15T04:53:37;96913.19;;;-1.10;94.20
59106;BME280;44891;50.204;8.132;2024-01-15T04:57:39;96908.25;;;-0.98;93.57
59106;BME280;44891;50.204;8.132;2024-01-15T05:01:41;96907.06;;;-0.96;94.51
59106;BME280;44891;50.204;8.132;2024-01-15T05:05:44;96909.41;;;-1.14;94.88
59106;BME280;44891;50.204;8.132;2024-01-15T05:09:46;96907.44;;;-1.05;94.09
59106;BME280;44891;50.204;8.132;2024-01-15T05:13:47;96897.13;;;-1.19;95.44
59106;BME280;44891;50.204;8.132;2024-01-15T05:17:49;96894.75;;;-1.00;95.31
59106;BME280;44891;50.204;8.132;2024-01-15T05:21:52;96884.66;;;-0.95;95.52
59106;BME280;44891;50.204;8.132;2024-01-15T05:25:54;96887.44;;;-1.03;97.45
59106;BME280;44891;50.204;8.132;2024-01-15T05:29:56;96899.50;;;-1.11;97.26
59106;BME280;44891;50.204;8.132;2024-01-15T05:33:58;96888.81;;;-1.07;97.17
59106;BME280;44891;50.204;8.132;2024-01-15T05:38:01;96895.72;;;-1.15;96.80
59106;BME280;44891;50.204;8.132;2024-01-15T05:42:04;96902.91;;;-0.90;95.74
59106;BME280;44891;50.204;8.132;2024-01-15T05:46:06;96886.66;;;-1.04;96.29
59106;BME280;44891;50.204;8.132;2024-01-15T05:50:08;96899.69;;;-1.25;97.90
59106;BME280;44891;50.204;8.132;2024-01-15T05:54:11;96895.16;;;-1.03;98.23
59106;BME280;44891;50.204;8.132;2024-01-15T05:58:13;96897.34;;;-1.00;98.08
59106;BME280;44891;50.204;8.132;2024-01-15T06:02:15;96890.03;;;-0.84;97.20
59106;BME280;44891;50.204;8.132;2024-01-15T06:06:17;96890.00;;;-1.03;97.33
59106;BME280;44891;50.204;8.132;2024-01-15T06:10:20;96892.94;;;-1.20;97.57
59106;BME280;44891;50.204;8.132;2024-01-15T06:14:22;96887.44;;;-1.10;97.65
59106;BME280;44891;50.204;8.132;2024-01-15T06:18:23;96897.16;;;-0.92;97.25
59106;BME280;44891;50.204;8.132;2024-01-15T06:22:25;96892.41;;;-0.75;95.40
59106;BME280;44891;50.204;8.132;2024-01-15T06:26:28;96894.59;;;-0.99;95.85
59106;BME280;44891;50.204;8.132;2024-01-15T06:30:30;96889.44;;;-0.79;95.74
59106;BME280;44891;50.204;8.132;2024-01-15T06:34:32;96895.97;;;-0.96;96.72
59106;BME280;44891;50.204;8.132;2024-01-15T06:38:34;96885.66;;;-0.83;96.53
59106;BME280;44891;50.204;8.132;2024-01-15T06:42:37;96885.88;;;-0.78;96.70
59106;BME280;44891;50.204;8.132;2024-01-15T06:46:41;96890.22;;;-0.85;96.87
59106;BME280;44891;50.204;8.132;2024-01-15T06:50:43;96884.84;;;-1.03;96.61
59106;BME280;44891;50.204;8.132;2024-01-15T06:54:45;96885.66;;;-0.90;96.10
59106;BME280;44891;50.204;8.132;2024-01-15T06:58:49;96883.06;;;-1.03;96.11
59106;BME280;44891;50.204;8.132;2024-01-15T07:02:51;96878.13;;;-0.91;96.00
59106;BME280;44891;50.204;8.132;2024-01-15T07:06:53;96889.03;;;-0.76;94.67
59106;BME280;44891;50.204;8.132;2024-01-15T07:10:55;96889.59;;;-1.00;96.60
59106;BME280;44891;50.204;8.132;2024-01-15T07:14:58;96884.44;;;-0.94;95.85
59106;BME280;44891;50.204;8.132;2024-01-15T07:19:00;96890.38;;;-1.13;98.74
59106;BME280;44891;50.204;8.132;2024-01-15T07:23:02;96887.00;;;-1.14;99.90
59106;BME280;44891;50.204;8.132;2024-01-15T07:27:04;96896.94;;;-0.97;100.00
59106;BME280;44891;50.204;8.132;2024-01-15T07:31:07;96883.28;;;-1.11;100.00
59106;BME280;44891;50.204;8.132;2024-01-15T07:35:10;96878.28;;;-1.26;100.00
59106;BME280;44891;50.204;8.132;2024-01-15T07:39:12;96879.50;;;-1.15;100.00
59106;BME280;44891;50.204;8.132;2024-01-15T07:43:14;96891.38;;;-1.07;100.00
59106;BME280;44891;50.204;8.132;2024-01-15T07:47:17;96887.81;;;-0.93;99.04
59106;BME280;44891;50.204;8.132;2024-01-15T07:51:19;96885.44;;;-1.15;98.68
59106;BME280;44891;50.204;8.132;2024-01-15T07:55:21;96878.50;;;-1.07;99.29
59106;BME280;44891;50.204;8.132;2024-01-15T07:59:23;96866.41;;;-0.94;97.60
59106;BME280;44891;50.204;8.132;2024-01-15T08:03:26;96884.28;;;-0.92;97.34
59106;BME280;44891;50.204;8.132;2024-01-15T08:07:28;96882.09;;;-0.82;97.92
59106;BME280;44891;50.204;8.132;2024-01-15T08:11:29;96881.69;;;-0.79;99.29
59106;BME280;44891;50.204;8.132;2024-01-15T08:15:31;96888.81;;;-0.68;98.65
59106;BME280;44891;50.204;8.132;2024-01-15T08:19:35;96879.50;;;-0.89;96.46
59106;BME280;44891;50.204;8.132;2024-01-15T08:23:36;96883.66;;;-0.81;95.47
59106;BME280;44891;50.204;8.132;2024-01-15T08:27:39;96880.88;;;-0.60;95.33
59106;BME280;44891;50.204;8.132;2024-01-15T08:31:40;96887.44;;;-0.70;94.36
59106;BME280;44891;50.204;8.132;2024-01-15T08:35:44;96887.81;;;-0.60;94.21
59106;BME280;44891;50.204;8.132;2024-01-15T08:39:46;96881.69;;;-0.59;94.58
59106;BME280;44891;50.204;8.132;2024-01-15T08:43:48;96880.84;;;-0.46;94.39
59106;BME280;44891;50.204;8.132;2024-01-15T08:47:49;96877.34;;;-0.65;95.00
59106;BME280;44891;50.204;8.132;2024-01-15T08:51:52;96885.84;;;-0.51;93.54
59106;BME280;44891;50.204;8.132;2024-01-15T08:55:54;96887.63;;;-0.45;93.62
59106;BME280;44891;50.204;8.132;2024-01-15T08:59:56;96885.63;;;-0.43;93.84
59106;BME280;44891;50.204;8.132;2024-01-15T09:03:59;96894.94;;;-0.36;92.94
59106;BME280;44891;50.204;8.132;2024-01-15T09:08:02;96875.91;;;-0.41;92.54
59106;BME280;44891;50.204;8.132;2024-01-15T09:12:04;96876.69;;;-0.47;92.17
59106;BME280;44891;50.204;8.132;2024-01-15T09:16:06;96883.75;;;-0.03;90.21
59106;BME280;44891;50.204;8.132;2024-01-15T09:20:09;96882.97;;;0.79;86.07
59106;BME280;44891;50.204;8.132;2024-01-15T09:24:12;96882.03;;;0.36;87.74
59106;BME280;44891;50.204;8.132;2024-01-15T09:28:14;96875.22;;;0.48;86.85
59106;BME280;44891;50.204;8.132;2024-01-15T09:32:15;96871.38;;;0.89;86.36
59106;BME280;44891;50.204;8.132;2024-01-15T09:36:17;96871.47;;;0.75;83.83
59106;BME280;44891;50.204;8.132;2024-01-15T09:40:20;96880.84;;;1.01;83.94
59106;BME280;44891;50.204;8.132;2024-01-15T09:44:23;96883.78;;;1.05;83.21
59106;BME280;44891;50.204;8.132;2024-01-15T09:48:25;96878.84;;;1.03;83.57
59106;BME280;44891;50.204;8.132;2024-01-15T09:52:27;96876.69;;;0.69;85.90
59106;BME280;44891;50.204;8.132;2024-01-15T09:56:30;96880.34;;;0.54;85.30
59106;BME280;44891;50.204;8.132;2024-01-15T10:00:32;96881.38;;;0.78;84.03
59106;BME280;44891;50.204;8.132;2024-01-15T10:04:37;96880.59;;;1.96;79.93
59106;BME280;44891;50.204;8.132;2024-01-15T10:08:39;96870.84;;;1.05;84.21
59106;BME280;44891;50.204;8.132;2024-01-15T10:12:42;96863.69;;;0.82;85.00
59106;BME280;44891;50.204;8.132;2024-01-15T10:16:44;96869.16;;;0.67;85.26
59106;BME280;44891;50.204;8.132;2024-01-15T10:20:46;96863.84;;;0.56;86.34
59106;BME280;44891;50.204;8.132;2024-01-15T10:24:48;96853.75;;;0.79;84.57
59106;BME280;44891;50.204;8.132;2024-01-15T10:28:52;96850.34;;;1.10;83.33
59106;BME280;44891;50.204;8.132;2024-01-15T10:32:57;96838.69;;;1.01;84.00
59106;BME280;44891;50.204;8.132;2024-01-15T10:36:59;96839.66;;;1.06;84.69
59106;BME280;44891;50.204;8.132;2024-01-15T10:41:01;96829.88;;;1.33;82.97
59106;BME280;44891;50.204;8.132;2024-01-15T10:45:05;96827.38;;;2.00;81.67
59106;BME280;44891;50.204;8.132;2024-01-15T10:49:09;96813.09;;;2.69;76.08
59106;BME280;44891;50.204;8.132;2024-01-15T10:53:13;96808.56;;;3.18;74.22
59106;BME280;44891;50.204;8.132;2024-01-15T10:57:15;96805.09;;;1.99;79.81
59106;BME280;44891;50.204;8.132;2024-01-15T11:01:19;96809.94;;;1.16;83.88
59106;BME280;44891;50.204;8.132;2024-01-15T11:05:21;96812.19;;;1.30;83.34
59106;BME280;44891;50.204;8.132;2024-01-15T11:09:23;96801.78;;;1.55;82.11
59106;BME280;44891;50.204;8.132;2024-01-15T11:13:39;96800.41;;;1.34;83.33
59106;BME280;44891;50.204;8.132;2024-01-15T11:18:01;96810.84;;;1.64;82.51
59106;BME280;44891;50.204;8.132;2024-01-15T11:22:07;96807.84;;;1.06;84.74
59106;BME280;44891;50.204;8.132;2024-01-15T11:30:26;96787.47;;;1.71;81.36
59106;BME280;44891;50.204;8.132;2024-01-15T11:38:49;96793.88;;;2.05;79.50
59106;BME280;44891;50.204;8.132;2024-01-15T11:42:51;96785.06;;;3.60;75.99
59106;BME280;44891;50.204;8.132;2024-01-15T11:46:56;96796.88;;;7.38;61.17
59106;BME280;44891;50.204;8.132;2024-01-15T11:50:59;96806.03;;;4.84;67.48
59106;BME280;44891;50.204;8.132;2024-01-15T11:55:11;96806.75;;;2.54;77.50
59106;BME280;44891;50.204;8.132;2024-01-15T11:59:13;96799.59;;;2.79;78.51
59106;BME280;44891;50.204;8.132;2024-01-15T12:03:15;96819.91;;;1.92;81.55
59106;BME280;44891;50.204;8.132;2024-01-15T12:07:17;96810.63;;;1.84;81.24
59106;BME280;44891;50.204;8.132;2024-01-15T12:11:20;96815.44;;;2.29;81.95
59106;BME280;44891;50.204;8.132;2024-01-15T12:15:25;96816.72;;;1.90;82.46
59106;BME280;44891;50.204;8.132;2024-01-15T12:19:27;96824.34;;;1.48;86.18
59106;BME280;44891;50.204;8.132;2024-01-15T12:23:29;96824.94;;;1.25;87.71
59106;BME280;44891;50.204;8.132;2024-01-15T12:27:32;96820.84;;;1.79;85.19
59106;BME280;44891;50.204;8.132;2024-01-15T12:31:34;96823.16;;;2.78;80.79
59106;BME280;44891;50.204;8.132;2024-01-15T12:35:36;96817.59;;;1.84;85.57
59106;BME280;44891;50.204;8.132;2024-01-15T12:39:38;96825.00;;;1.19;88.71
59106;BME280;44891;50.204;8.132;2024-01-15T12:43:41;96826.56;;;2.18;85.51
59106;BME280;44891;50.204;8.132;2024-01-15T12:47:43;96830.13;;;1.69;86.63
59106;BME280;44891;50.204;8.132;2024-01-15T12:51:51;96847.72;;;1.17;88.43
59106;BME280;44891;50.204;8.132;2024-01-15T12:55:53;96855.88;;;0.89;92.61
59106;BME280;44891;50.204;8.132;2024-01-15T12:59:56;96856.91;;;1.13;92.09
59106;BME280;44891;50.204;8.132;2024-01-15T13:03:58;96857.41;;;0.96;94.33
59106;BME280;44891;50.204;8.132;2024-01-15T13:08:01;96863.84;;;0.87;96.58
59106;BME280;44891;50.204;8.132;2024-01-15T13:12:04;96870.03;;;1.11;95.21
59106;BME280;44891;50.204;8.132;2024-01-15T13:16:07;96855.31;;;0.55;96.96
59106;BME280;44891;50.204;8.132;2024-01-15T13:20:10;96850.09;;;0.93;95.31
59106;BME280;44891;50.204;8.132;2024-01-15T13:24:12;96854.56;;;1.04;94.71
59106;BME280;44891;50.204;8.132;2024-01-15T13:28:14;96838.75;;;1.19;94.40
59106;BME280;44891;50.204;8.132;2024-01-15T13:32:20;96843.03;;;1.50;92.66
59106;BME280;44891;50.204;8.132;2024-01-15T13:36:24;96844.22;;;1.73;92.22
59106;BME280;44891;50.204;8.132;2024-01-15T13:40:26;96841.97;;;2.43;86.97
59106;BME280;44891;50.204;8.132;2024-01-15T13:44:27;96842.84;;;2.07;87.13
59106;BME280;44891;50.204;8.132;2024-01-15T13:48:31;96842.63;;;1.90;88.60
59106;BME280;44891;50.204;8.132;2024-01-15T13:52:33;96854.22;;;1.26;90.57
59106;BME280;44891;50.204;8.132;2024-01-15T13:56:34;96858.31;;;1.33;92.93
59106;BME280;44891;50.204;8.132;2024-01-15T14:00:36;96871.94;;;1.22;93.05
59106;BME280;44891;50.204;8.132;2024-01-15T14:04:39;96872.34;;;1.44;90.73
59106;BME280;44891;50.204;8.132;2024-01-15T14:08:41;96873.59;;;1.10;93.14
59106;BME280;44891;50.204;8.132;2024-01-15T14:12:43;96873.44;;;1.30;90.51
59106;BME280;44891;50.204;8.132;2024-01-15T14:16:45;96872.38;;;1.62;88.26
59106;BME280;44891;50.204;8.132;2024-01-15T14:20:48;96874.00;;;1.57;88.00
59106;BME280;44891;50.204;8.132;2024-01-15T14:24:50;96869.06;;;1.74;86.18
59106;BME280;44891;50.204;8.132;2024-01-15T14:28:53;96863.50;;;1.52;85.19
59106;BME280;44891;50.204;8.132;2024-01-15T14:32:55;96864.34;;;1.27;86.31
59106;BME280;44891;50.204;8.132;2024-01-15T14:36:58;96862.91;;;1.06;88.04
59106;BME280;44891;50.204;8.132;2024-01-15T14:40:59;96885.66;;;1.23;87.94
59106;BME280;44891;50.204;8.132;2024-01-15T14:45:01;96884.22;;;1.02;87.69
59106;BME280;44891;50.204;8.132;2024-01-15T14:49:03;96897.59;;;0.92;87.88
59106;BME280;44891;50.204;8.132;2024-01-15T14:53:06;96900.72;;;1.01;87.04
59106;BME280;44891;50.204;8.132;2024-01-15T14:57:09;96910.50;;;0.92;86.82
59106;BME280;44891;50.204;8.132;2024-01-15T15:01:11;96914.09;;;0.91;87.89
59106;BME280;44891;50.204;8.132;2024-01-15T15:05:13;96905.03;;;0.82;86.65
59106;BME280;44891;50.204;8.132;2024-01-15T15:09:18;96924.72;;;0.76;87.14
59106;BME280;44891;50.204;8.132;2024-01-15T15:13:20;96929.94;;;0.70;87.84
59106;BME280;44891;50.204;8.132;2024-01-15T15:17:23;96930.34;;;0.67;89.40
59106;BME280;44891;50.204;8.132;2024-01-15T15:21:25;96932.16;;;0.66;90.03
59106;BME280;44891;50.204;8.132;2024-01-15T15:25:28;96938.38;;;0.45;92.67
59106;BME280;44891;50.204;8.132;2024-01-15T15:29:30;96948.16;;;0.37;93.56
59106;BME280;44891;50.204;8.132;2024-01-15T15:33:32;96953.47;;;0.48;91.46
59106;BME280;44891;50.204;8.132;2024-01-15T15:37:34;96955.63;;;0.51;91.30
59106;BME280;44891;50.204;8.132;2024-01-15T15:41:37;96956.91;;;0.29;93.83
59106;BME280;44891;50.204;8.132;2024-01-15T15:45:39;96971.38;;;0.37;91.34
59106;BME280;44891;50.204;8.132;2024-01-15T15:49:41;96972.78;;;0.33;91.35
59106;BME280;44891;50.204;8.132;2024-01-15T15:53:43;96978.59;;;0.21;90.90
59106;BME280;44891;50.204;8.132;2024-01-15T15:57:46;96985.66;;;0.39;89.36
59106;BME280;44891;50.204;8.132;2024-01-15T16:01:48;96983.56;;;0.16;89.64
59106;BME280;44891;50.204;8.132;2024-01-15T16:05:50;96990.47;;;0.29;88.82
59106;BME280;44891;50.204;8.132;2024-01-15T16:09:52;96994.09;;;0.08;89.95
59106;BME280;44891;50.204;8.132;2024-01-15T16:13:55;97017.53;;;0.20;89.82
59106;BME280;44891;50.204;8.132;2024-01-15T16:17:57;97028.66;;;0.14;89.31
59106;BME280;44891;50.204;8.132;2024-01-15T16:21:58;97032.00;;;0.21;89.61
59106;BME280;44891;50.204;8.132;2024-01-15T16:26:00;97034.75;;;0.26;89.71
59106;BME280;44891;50.204;8.132;2024-01-15T16:30:04;97029.03;;;0.11;91.00
59106;BME280;44891;50.204;8.132;2024-01-15T16:34:07;97038.97;;;0.14;92.13
59106;BME280;44891;50.204;8.132;2024-01-15T16:38:09;97043.72;;;0.17;92.83
59106;BME280;44891;50.204;8.132;2024-01-15T16:42:12;97051.69;;;0.02;94.43
59106;BME280;44891;50.204;8.132;2024-01-15T16:46:15;97061.22;;;-0.12;94.87
59106;BME280;44891;50.204;8.132;2024-01-15T16:50:17;97074.91;;;0.02;95.55
59106;BME280;44891;50.204;8.132;2024-01-15T16:54:19;97075.28;;;-0.08;96.46
59106;BME280;44891;50.204;8.132;2024-01-15T16:58:21;97072.69;;;0.19;95.50
59106;BME280;44891;50.204;8.132;2024-01-15T17:02:24;97087.41;;;0.05;95.55
59106;BME280;44891;50.204;8.132;2024-01-15T17:06:26;97087.41;;;0.12;94.35
59106;BME280;44891;50.204;8.132;2024-01-15T17:10:28;97095.75;;;0.07;95.14
59106;BME280;44891;50.204;8.132;2024-01-15T17:14:29;97105.09;;;0.15;94.41
59106;BME280;44891;50.204;8.132;2024-01-15T17:18:33;97111.25;;;0.07;95.37
59106;BME280;44891;50.204;8.132;2024-01-15T17:22:35;97127.13;;;0.17;95.73
59106;BME280;44891;50.204;8.132;2024-01-15T17:26:37;97129.47;;;-0.01;97.07
59106;BME280;44891;50.204;8.132;2024-01-15T17:30:39;97133.06;;;0.18;96.14
59106;BME280;44891;50.204;8.132;2024-01-15T17:34:42;97135.44;;;0.06;96.88
59106;BME280;44891;50.204;8.132;2024-01-15T17:38:43;97149.34;;;0.12;96.69
59106;BME280;44891;50.204;8.132;2024-01-15T17:42:45;97143.38;;;0.05;96.66
59106;BME280;44891;50.204;8.132;2024-01-15T17:46:48;97150.56;;;0.22;95.21
59106;BME280;44891;50.204;8.132;2024-01-15T17:50:51;97155.94;;;0.21;94.58
59106;BME280;44891;50.204;8.132;2024-01-15T17:54:53;97159.28;;;0.15;94.91
59106;BME280;44891;50.204;8.132;2024-01-15T17:58:54;97154.91;;;0.02;96.07
59106;BME280;44891;50.204;8.132;2024-01-15T18:02:56;97162.88;;;0.14;95.52
59106;BME280;44891;50.204;8.132;2024-01-15T18:07:01;97174.38;;;0.18;95.26
59106;BME280;44891;50.204;8.132;2024-01-15T18:11:03;97175.78;;;0.14;96.80
59106;BME280;44891;50.204;8.132;2024-01-15T18:15:05;97186.69;;;0.16;95.83
59106;BME280;44891;50.204;8.132;2024-01-15T18:19:07;97196.03;;;0.17;96.07
59106;BME280;44891;50.204;8.132;2024-01-15T18:23:11;97202.19;;;0.09;94.64
59106;BME280;44891;50.204;8.132;2024-01-15T18:27:13;97199.81;;;0.21;92.78
59106;BME280;44891;50.204;8.132;2024-01-15T18:31:15;97206.78;;;0.34;92.26
59106;BME280;44891;50.204;8.132;2024-01-15T18:35:16;97214.31;;;0.22;93.01
59106;BME280;44891;50.204;8.132;2024-01-15T18:39:19;97209.75;;;0.31;92.84
59106;BME280;44891;50.204;8.132;2024-01-15T18:43:21;97222.06;;;0.22;93.68
59106;BME280;44891;50.204;8.132;2024-01-15T18:47:24;97228.59;;;0.24;92.44
59106;BME280;44891;50.204;8.132;2024-01-15T18:51:25;97240.53;;;0.39;91.81
59106;BME280;44891;50.204;8.132;2024-01-15T18:55:28;97247.47;;;0.25;91.83
59106;BME280;44891;50.204;8.132;2024-01-15T18:59:30;97253.22;;;0.14;93.50
59106;BME280;44891;50.204;8.132;2024-01-15T19:03:34;97251.47;;;0.34;91.68
59106;BME280;44891;50.204;8.132;2024-01-15T19:07:35;97264.97;;;0.36;90.98
59106;BME280;44891;50.204;8.132;2024-01-15T19:11:39;97265.38;;;0.26;92.47
59106;BME280;44891;50.204;8.132;2024-01-15T19:15:41;97278.88;;;0.29;91.11
59106;BME280;44891;50.204;8.132;2024-01-15T19:19:43;97285.59;;;0.23;90.56
59106;BME280;44891;50.204;8.132;2024-01-15T19:23:49;97273.25;;;0.12;91.91
59106;BME280;44891;50.204;8.132;2024-01-15T19:27:53;97267.28;;;0.11;90.72
59106;BME280;44891;50.204;8.132;2024-01-15T19:31:54;97274.44;;;0.03;89.33
59106;BME280;44891;50.204;8.132;2024-01-15T19:35:58;97269.69;;;0.13;89.31
59106;BME280;44891;50.204;8.132;2024-01-15T19:40:00;97277.16;;;-0.12;90.12
59106;BME280;44891;50.204;8.132;2024-01-15T19:44:05;97283.13;;;-0.12;90.11
59106;BME280;44891;50.204;8.132;2024-01-15T19:48:07;97282.88;;;-0.17;90.32
59106;BME280;44891;50.204;8.132;2024-01-15T19:52:09;97294.25;;;-0.05;88.54
59106;BME280;44891;50.204;8.132;2024-01-15T19:56:11;97288.66;;;-0.15;88.19
59106;BME280;44891;50.204;8.132;2024-01-15T20:00:19;97289.50;;;-0.01;88.02
59106;BME280;44891;50.204;8.132;2024-01-15T20:04:21;97300.84;;;0.11;86.66
59106;BME280;44891;50.204;8.132;2024-01-15T20:08:23;97291.09;;;0.00;86.58
59106;BME280;44891;50.204;8.132;2024-01-15T20:12:25;97295.06;;;0.03;86.07
59106;BME280;44891;50.204;8.132;2024-01-15T20:16:28;97301.59;;;-0.02;86.60
59106;BME280;44891;50.204;8.132;2024-01-15T20:20:29;97306.31;;;-0.18;86.29
59106;BME280;44891;50.204;8.132;2024-01-15T20:24:31;97304.00;;;-0.41;87.60
59106;BME280;44891;50.204;8.132;2024-01-15T20:28:33;97321.50;;;-0.37;88.00
59106;BME280;44891;50.204;8.132;2024-01-15T20:32:36;97319.56;;;-0.21;87.42
59106;BME280;44891;50.204;8.132;2024-01-15T20:36:38;97323.59;;;-0.12;87.14
59106;BME280;44891;50.204;8.132;2024-01-15T20:40:40;97319.28;;;-0.05;87.62
59106;BME280;44891;50.204;8.132;2024-01-15T20:44:42;97315.44;;;-0.16;87.40
59106;BME280;44891;50.204;8.132;2024-01-15T20:48:46;97322.19;;;-0.15;87.70
59106;BME280;44891;50.204;8.132;2024-01-15T20:52:48;97324.00;;;-0.09;86.47
59106;BME280;44891;50.204;8.132;2024-01-15T20:56:50;97324.41;;;-0.12;87.95
59106;BME280;44891;50.204;8.132;2024-01-15T21:00:52;97337.25;;;-0.25;88.27
59106;BME280;44891;50.204;8.132;2024-01-15T21:04:56;97341.44;;;-0.17;89.08
59106;BME280;44891;50.204;8.132;2024-01-15T21:08:58;97345.78;;;-0.24;88.72
59106;BME280;44891;50.204;8.132;2024-01-15T21:13:00;97346.44;;;-0.09;87.24
59106;BME280;44891;50.204;8.132;2024-01-15T21:17:02;97362.34;;;-0.06;87.69
59106;BME280;44891;50.204;8.132;2024-01-15T21:21:06;97352.84;;;0.02;87.63
59106;BME280;44891;50.204;8.132;2024-01-15T21:25:07;97355.75;;;-0.08;87.75
59106;BME280;44891;50.204;8.132;2024-01-15T21:29:10;97359.09;;;-0.14;88.34
59106;BME280;44891;50.204;8.132;2024-01-15T21:33:12;97352.66;;;0.03;86.57
59106;BME280;44891;50.204;8.132;2024-01-15T21:37:15;97359.16;;;-0.01;88.03
59106;BME280;44891;50.204;8.132;2024-01-15T21:41:17;97361.34;;;-0.05;88.21